createdAt,value
2023-02-23T00:00:47.388Z,54.86
2023-02-23T00:03:14.608Z,54.92
2023-02-23T00:05:41.180Z,54.99
2023-02-23T00:08:07.900Z,54.99
2023-02-23T00:10:34.398Z,54.56
2023-02-23T00:13:00.726Z,55.06
2023-02-23T00:15:27.316Z,54.87
2023-02-23T00:17:53.617Z,55.00
2023-02-23T00:20:19.980Z,54.79
2023-02-23T00:22:46.810Z,54.90
2023-02-23T00:25:13.912Z,54.81
2023-02-23T00:27:40.446Z,54.98
2023-02-23T00:30:06.800Z,54.46
2023-02-23T00:32:33.590Z,54.71
2023-02-23T00:35:00.449Z,54.76
2023-02-23T00:37:27.506Z,54.99
2023-02-23T00:39:53.941Z,54.32
2023-02-23T00:42:20.705Z,54.39
2023-02-23T00:44:47.068Z,54.79
2023-02-23T00:47:13.621Z,54.83
2023-02-23T00:49:39.922Z,54.78
2023-02-23T00:52:06.324Z,54.72
2023-02-23T00:54:32.918Z,54.60
2023-02-23T00:56:59.699Z,54.81
2023-02-23T00:59:26.335Z,54.12
2023-02-23T01:01:52.946Z,54.74
2023-02-23T01:04:19.292Z,54.64
2023-02-23T01:06:45.674Z,54.70
2023-02-23T01:09:12.309Z,54.57
2023-02-23T01:11:38.716Z,54.45
2023-02-23T01:14:05.125Z,54.71
2023-02-23T01:16:31.875Z,54.80
2023-02-23T01:18:58.458Z,54.71
2023-02-23T01:21:24.742Z,54.73
2023-02-23T01:23:51.225Z,54.60
2023-02-23T01:26:18.115Z,54.81
2023-02-23T01:28:44.480Z,54.69
2023-02-23T01:31:10.934Z,54.69
2023-02-23T01:33:37.359Z,54.78
2023-02-23T01:36:03.707Z,54.80
2023-02-23T01:38:30.182Z,54.76
2023-02-23T01:40:57.136Z,54.72
2023-02-23T01:43:23.825Z,54.93
2023-02-23T01:45:50.378Z,54.92
2023-02-23T01:48:16.707Z,54.55
2023-02-23T01:50:43.080Z,54.83
2023-02-23T01:53:09.409Z,54.79
2023-02-23T01:55:35.771Z,54.88
2023-02-23T01:58:02.075Z,54.65
2023-02-23T02:00:28.570Z,54.78
2023-02-23T02:02:55.517Z,54.86
2023-02-23T02:05:21.935Z,54.60
2023-02-23T02:07:48.587Z,54.86
2023-02-23T02:10:15.061Z,54.83
2023-02-23T02:12:41.564Z,54.89
2023-02-23T02:15:09.008Z,54.74
2023-02-23T02:17:35.610Z,54.63
2023-02-23T02:20:01.939Z,54.86
2023-02-23T02:22:28.331Z,55.07
2023-02-23T02:24:54.640Z,54.93
2023-02-23T02:27:21.351Z,54.80
2023-02-23T02:29:47.725Z,54.62
2023-02-23T02:32:14.791Z,54.83
2023-02-23T02:34:41.242Z,54.76
2023-02-23T02:37:07.662Z,54.75
2023-02-23T02:39:34.066Z,54.81
2023-02-23T02:42:00.364Z,54.83
2023-02-23T02:44:27.299Z,54.68
2023-02-23T02:46:53.959Z,54.82
2023-02-23T02:49:20.350Z,54.76
2023-02-23T02:51:46.930Z,54.86
2023-02-23T02:54:13.300Z,54.80
2023-02-23T02:56:39.671Z,54.58
2023-02-23T02:59:06.044Z,54.57
2023-02-23T03:01:32.428Z,54.59
2023-02-23T03:03:58.748Z,54.72
2023-02-23T03:06:25.078Z,54.91
2023-02-23T03:08:51.582Z,54.99
2023-02-23T03:11:18.334Z,54.91
2023-02-23T03:13:45.083Z,54.77
2023-02-23T03:16:11.482Z,54.80
2023-02-23T03:18:37.953Z,54.71
2023-02-23T03:21:04.812Z,54.83
2023-02-23T03:23:31.914Z,54.93
2023-02-23T03:25:58.539Z,54.68
2023-02-23T03:28:26.161Z,54.69
2023-02-23T03:30:53.178Z,54.80
2023-02-23T03:33:19.575Z,54.68
2023-02-23T03:35:46.146Z,54.69
2023-02-23T03:38:12.622Z,54.70
2023-02-23T03:40:39.221Z,54.83
2023-02-23T03:43:05.819Z,54.63
2023-02-23T03:45:32.295Z,54.62
2023-02-23T03:47:58.879Z,54.88
2023-02-23T03:50:25.419Z,54.71
2023-02-23T03:52:51.765Z,54.63
2023-02-23T03:55:18.261Z,54.63
2023-02-23T03:57:44.746Z,54.74
2023-02-23T04:00:11.073Z,54.57
2023-02-23T04:02:37.710Z,54.76
2023-02-23T04:05:04.142Z,54.65
2023-02-23T04:07:31.152Z,54.57
2023-02-23T04:09:57.498Z,54.59
2023-02-23T04:12:23.925Z,54.81
2023-02-23T04:14:50.302Z,54.60
2023-02-23T04:17:16.671Z,54.55
2023-02-23T04:19:43.174Z,54.64
2023-02-23T04:22:09.519Z,54.68
2023-02-23T04:24:36.286Z,54.55
2023-02-23T04:27:02.655Z,54.91
2023-02-23T04:29:29.049Z,54.85
2023-02-23T04:31:55.467Z,54.66
2023-02-23T04:34:21.857Z,54.73
2023-02-23T04:36:48.917Z,54.50
2023-02-23T04:39:15.427Z,54.69
2023-02-23T04:41:41.789Z,54.83
2023-02-23T04:44:08.196Z,54.58
2023-02-23T04:46:34.556Z,54.71
2023-02-23T04:49:01.127Z,54.70
2023-02-23T04:51:27.672Z,54.85
2023-02-23T04:53:54.287Z,54.53
2023-02-23T04:56:20.807Z,54.80
2023-02-23T04:58:47.586Z,54.97
2023-02-23T05:01:14.001Z,54.87
2023-02-23T05:03:40.571Z,54.74
2023-02-23T05:06:07.232Z,54.75
2023-02-23T05:08:33.603Z,54.83
2023-02-23T05:11:00.334Z,55.01
2023-02-23T05:13:27.102Z,54.75
2023-02-23T05:15:53.513Z,54.59
2023-02-23T05:18:20.146Z,54.82
2023-02-23T05:20:47.002Z,54.92
2023-02-23T05:23:13.816Z,54.86
2023-02-23T05:25:40.668Z,54.78
2023-02-23T05:28:07.262Z,54.72
2023-02-23T05:30:33.814Z,54.76
2023-02-23T05:33:00.194Z,54.77
2023-02-23T05:35:26.975Z,54.83
2023-02-23T05:37:53.744Z,54.99
2023-02-23T05:40:20.391Z,54.81
2023-02-23T05:42:46.817Z,54.64
2023-02-23T05:45:13.467Z,54.75
2023-02-23T05:47:39.854Z,54.71
2023-02-23T05:50:06.520Z,55.02
2023-02-23T05:52:33.504Z,54.75
2023-02-23T05:55:00.176Z,54.58
2023-02-23T05:57:27.076Z,54.98
2023-02-23T05:59:53.539Z,54.61
2023-02-23T06:02:19.920Z,54.87
2023-02-23T06:04:46.788Z,54.64
2023-02-23T06:07:13.124Z,54.76
2023-02-23T06:09:39.699Z,54.69
2023-02-23T06:12:06.274Z,54.57
2023-02-23T06:14:32.566Z,54.61
2023-02-23T06:16:59.165Z,54.89
2023-02-23T06:19:25.610Z,54.95
2023-02-23T06:21:51.924Z,54.91
2023-02-23T06:24:18.275Z,55.18
2023-02-23T06:26:44.692Z,55.19
2023-02-23T06:29:10.977Z,55.58
2023-02-23T06:31:37.403Z,55.65
2023-02-23T06:34:03.826Z,55.81
2023-02-23T06:36:30.582Z,55.95
2023-02-23T06:38:57.004Z,55.82
2023-02-23T06:41:23.372Z,55.84
2023-02-23T06:43:49.865Z,55.52
2023-02-23T06:46:16.280Z,55.63
2023-02-23T06:48:42.647Z,55.38
2023-02-23T06:51:09.040Z,55.77
2023-02-23T06:53:35.409Z,55.40
2023-02-23T06:56:01.837Z,55.20
2023-02-23T06:58:28.182Z,55.28
2023-02-23T07:00:54.922Z,55.41
2023-02-23T07:03:21.236Z,55.60
2023-02-23T07:05:47.970Z,55.53
2023-02-23T07:08:14.396Z,55.40
2023-02-23T07:10:40.717Z,55.83
2023-02-23T07:13:07.392Z,55.50
2023-02-23T07:15:33.827Z,55.90
2023-02-23T07:18:00.147Z,55.78
2023-02-23T07:20:26.749Z,56.22
2023-02-23T07:22:53.664Z,55.77
2023-02-23T07:25:20.046Z,55.34
2023-02-23T07:27:46.646Z,55.61
2023-02-23T07:30:13.015Z,55.74
2023-02-23T07:32:39.467Z,55.48
2023-02-23T07:35:05.835Z,55.88
2023-02-23T07:37:32.465Z,55.75
2023-02-23T07:40:01.024Z,56.06
2023-02-23T07:42:27.865Z,56.06
2023-02-23T07:44:54.256Z,56.20
2023-02-23T07:47:20.708Z,56.19
2023-02-23T07:49:47.054Z,55.99
2023-02-23T07:52:13.782Z,55.77
2023-02-23T07:54:40.157Z,56.29
2023-02-23T07:57:06.898Z,56.33
2023-02-23T07:59:33.755Z,56.33
2023-02-23T08:02:00.163Z,56.43
2023-02-23T08:04:26.670Z,56.51
2023-02-23T08:06:53.250Z,58.11
2023-02-23T08:09:19.709Z,56.74
2023-02-23T08:11:46.449Z,56.58
2023-02-23T08:14:12.798Z,56.59
2023-02-23T08:16:39.262Z,56.61
2023-02-23T08:19:05.734Z,56.78
2023-02-23T08:21:32.510Z,56.43
2023-02-23T08:23:58.941Z,56.67
2023-02-23T08:26:25.425Z,56.77
2023-02-23T08:28:51.882Z,56.58
2023-02-23T08:31:18.674Z,56.39
2023-02-23T08:33:45.207Z,56.45
2023-02-23T08:36:11.559Z,56.45
2023-02-23T08:38:38.325Z,56.31
2023-02-23T08:41:04.843Z,56.34
2023-02-23T08:43:31.536Z,56.33
2023-02-23T08:45:58.168Z,56.45
2023-02-23T08:48:24.733Z,56.23
2023-02-23T08:50:51.032Z,56.59
2023-02-23T08:53:17.522Z,56.45
2023-02-23T08:55:43.888Z,56.34
2023-02-23T08:58:10.270Z,56.52
2023-02-23T09:00:36.830Z,56.28
2023-02-23T09:03:03.690Z,56.39
2023-02-23T09:05:30.135Z,56.46
2023-02-23T09:07:57.015Z,56.46
2023-02-23T09:10:23.575Z,56.51
2023-02-23T09:12:50.475Z,56.52
2023-02-23T09:15:16.850Z,56.34
2023-02-23T09:17:43.264Z,56.48
2023-02-23T09:20:09.562Z,56.47
2023-02-23T09:22:37.016Z,56.53
2023-02-23T09:25:03.510Z,56.66
2023-02-23T09:27:29.852Z,56.44
2023-02-23T09:29:56.271Z,56.60
2023-02-23T09:32:23.144Z,56.68
2023-02-23T09:34:49.611Z,56.70
2023-02-23T09:37:16.009Z,57.00
2023-02-23T09:39:42.757Z,56.74
2023-02-23T09:42:09.572Z,57.05
2023-02-23T09:44:35.862Z,56.85
2023-02-23T09:47:02.169Z,56.83
2023-02-23T09:49:29.020Z,57.19
2023-02-23T09:51:55.424Z,57.21
2023-02-23T09:54:21.904Z,57.20
2023-02-23T09:56:48.519Z,57.02
2023-02-23T09:59:14.909Z,56.98
2023-02-23T10:01:41.778Z,57.25
2023-02-23T10:04:08.214Z,57.50
2023-02-23T10:06:34.582Z,57.30
2023-02-23T10:09:01.406Z,57.23
2023-02-23T10:11:27.835Z,57.46
2023-02-23T10:13:54.211Z,57.31
2023-02-23T10:16:20.763Z,57.55
2023-02-23T10:18:47.510Z,57.53
2023-02-23T10:21:13.864Z,57.52
2023-02-23T10:23:40.440Z,57.42
2023-02-23T10:26:06.745Z,57.65
2023-02-23T10:28:33.394Z,57.44
2023-02-23T10:30:59.847Z,57.62
2023-02-23T10:33:26.787Z,57.71
2023-02-23T10:36:07.200Z,57.64
2023-02-23T10:38:39.115Z,57.62
2023-02-23T10:41:05.517Z,57.55
2023-02-23T10:43:32.063Z,57.79
2023-02-23T10:45:58.503Z,57.53
2023-02-23T10:48:25.554Z,57.85
2023-02-23T10:50:52.154Z,57.46
2023-02-23T10:53:18.576Z,57.88
2023-02-23T10:55:45.254Z,57.87
2023-02-23T10:58:11.669Z,57.77
2023-02-23T11:00:37.988Z,57.91
2023-02-23T11:03:04.371Z,58.00
2023-02-23T11:05:30.682Z,57.91
2023-02-23T11:07:57.745Z,58.05
2023-02-23T11:10:24.132Z,57.98
2023-02-23T11:12:50.771Z,57.97
2023-02-23T11:15:17.181Z,57.89
2023-02-23T11:17:43.743Z,58.04
2023-02-23T11:20:10.560Z,58.03
2023-02-23T11:22:36.978Z,57.89
2023-02-23T11:25:03.675Z,58.23
2023-02-23T11:27:30.171Z,58.18
2023-02-23T11:29:56.606Z,58.04
2023-02-23T11:32:23.372Z,58.04
2023-02-23T11:34:50.146Z,57.93
2023-02-23T11:37:16.870Z,58.05
2023-02-23T11:39:43.402Z,57.86
2023-02-23T11:42:09.911Z,58.10
2023-02-23T11:44:36.444Z,58.04
2023-02-23T11:47:02.826Z,58.06
2023-02-23T11:49:29.593Z,58.12
2023-02-23T11:51:56.122Z,57.96
2023-02-23T11:54:22.417Z,57.93
2023-02-23T11:56:49.189Z,58.14
2023-02-23T11:59:15.527Z,58.10
2023-02-23T12:01:42.168Z,58.05
2023-02-23T12:04:08.671Z,57.86
2023-02-23T12:06:35.128Z,57.95
2023-02-23T12:09:01.506Z,57.96
2023-02-23T12:11:27.883Z,58.06
2023-02-23T12:13:54.221Z,58.00
2023-02-23T12:16:21.036Z,58.04
2023-02-23T12:18:47.739Z,57.87
2023-02-23T12:21:14.015Z,58.11
2023-02-23T12:23:40.344Z,57.98
2023-02-23T12:26:06.786Z,57.84
2023-02-23T12:28:33.367Z,57.62
2023-02-23T12:30:59.743Z,57.86
2023-02-23T12:33:26.068Z,58.25
2023-02-23T12:35:52.640Z,58.02
2023-02-23T12:38:19.438Z,57.96
2023-02-23T12:40:45.824Z,58.06
2023-02-23T12:43:12.726Z,58.05
2023-02-23T12:45:39.479Z,58.22
2023-02-23T12:48:05.979Z,58.15
2023-02-23T12:50:32.374Z,58.32
2023-02-23T12:52:59.209Z,58.52
2023-02-23T12:55:25.554Z,58.61
2023-02-23T12:57:52.146Z,58.61
2023-02-23T13:00:19.050Z,58.91
2023-02-23T13:02:45.584Z,59.07
2023-02-23T13:05:12.008Z,58.87
2023-02-23T13:07:38.747Z,59.08
2023-02-23T13:10:05.161Z,59.08
2023-02-23T13:12:31.757Z,59.08
2023-02-23T13:14:58.260Z,59.13
2023-02-23T13:17:24.570Z,58.94
2023-02-23T13:19:51.177Z,59.09
2023-02-23T13:22:17.930Z,59.06
2023-02-23T13:24:44.401Z,58.87
2023-02-23T13:27:10.773Z,59.08
2023-02-23T13:29:37.162Z,59.15
2023-02-23T13:32:03.818Z,59.24
2023-02-23T13:34:30.436Z,59.40
2023-02-23T13:36:57.126Z,59.30
2023-02-23T13:39:23.618Z,59.52
2023-02-23T13:41:50.403Z,59.46
2023-02-23T13:44:16.943Z,59.69
2023-02-23T13:46:43.192Z,59.78
2023-02-23T13:49:09.587Z,59.71
2023-02-23T13:51:35.941Z,59.53
2023-02-23T13:54:02.415Z,59.86
2023-02-23T13:56:29.296Z,59.76
2023-02-23T13:58:55.659Z,60.03
2023-02-23T14:01:22.449Z,60.01
2023-02-23T14:03:49.627Z,59.71
2023-02-23T14:06:15.968Z,59.77
2023-02-23T14:08:42.678Z,59.75
2023-02-23T14:11:09.313Z,59.89
2023-02-23T14:13:35.692Z,59.98
2023-02-23T14:16:02.409Z,59.96
2023-02-23T14:18:28.879Z,59.80
2023-02-23T14:20:55.651Z,59.87
2023-02-23T14:23:22.032Z,60.00
2023-02-23T14:25:48.407Z,60.04
2023-02-23T14:28:14.717Z,60.09
2023-02-23T14:30:41.404Z,59.90
2023-02-23T14:33:21.109Z,60.11
2023-02-23T14:35:47.853Z,60.04
2023-02-23T14:38:14.450Z,59.85
2023-02-23T14:40:40.926Z,60.00
2023-02-23T14:43:07.254Z,60.08
2023-02-23T14:45:34.143Z,59.78
2023-02-23T14:48:00.541Z,60.07
2023-02-23T14:50:27.001Z,59.83
2023-02-23T14:52:53.341Z,59.78
2023-02-23T14:55:20.096Z,60.20
2023-02-23T14:57:46.505Z,59.84
2023-02-23T15:00:12.859Z,60.00
2023-02-23T15:02:53.677Z,59.74
2023-02-23T15:05:20.449Z,59.56
2023-02-23T15:07:47.420Z,59.65
2023-02-23T15:10:13.881Z,59.94
2023-02-23T15:12:40.710Z,59.70
2023-02-23T15:15:07.317Z,59.40
2023-02-23T15:17:33.607Z,59.56
2023-02-23T15:22:47.096Z,59.48
2023-02-23T15:25:13.402Z,59.63
2023-02-23T15:27:39.804Z,59.73
2023-02-23T15:30:06.146Z,59.72
2023-02-23T15:32:32.819Z,59.47
2023-02-23T15:34:59.345Z,59.50
2023-02-23T15:37:26.608Z,59.37
2023-02-23T15:39:52.956Z,59.64
2023-02-23T15:42:19.674Z,59.57
2023-02-23T15:44:46.173Z,59.39
2023-02-23T15:47:13.068Z,59.20
2023-02-23T15:49:39.771Z,59.49
2023-02-23T15:52:06.251Z,59.16
2023-02-23T15:54:33.144Z,59.26
2023-02-23T15:56:59.889Z,59.27
2023-02-23T15:59:26.322Z,59.10
2023-02-23T16:01:52.751Z,59.42
2023-02-23T16:04:19.114Z,59.25
2023-02-23T16:06:45.724Z,59.33
2023-02-23T16:09:12.089Z,59.20
2023-02-23T16:11:39.157Z,59.43
2023-02-23T16:14:05.787Z,59.08
2023-02-23T16:16:32.336Z,59.17
2023-02-23T16:18:58.830Z,59.16
2023-02-23T16:21:25.397Z,58.98
2023-02-23T16:23:51.882Z,59.04
2023-02-23T16:26:18.819Z,59.38
2023-02-23T16:28:45.461Z,59.30
2023-02-23T16:31:12.059Z,59.08
2023-02-23T16:33:38.487Z,59.02
2023-02-23T16:36:04.888Z,58.94
2023-02-23T16:38:31.198Z,59.19
2023-02-23T16:40:57.732Z,58.93
2023-02-23T16:43:24.162Z,58.93
2023-02-23T16:45:51.107Z,59.05
2023-02-23T16:48:17.582Z,59.07
2023-02-23T16:50:43.952Z,59.25
2023-02-23T16:53:10.323Z,58.87
2023-02-23T16:55:36.682Z,58.92
2023-02-23T16:58:03.480Z,59.06
2023-02-23T17:00:29.855Z,59.20
2023-02-23T17:02:56.710Z,58.86
2023-02-23T17:05:23.479Z,58.92
2023-02-23T17:07:49.892Z,59.36
2023-02-23T17:10:16.653Z,58.93
2023-02-23T17:12:43.062Z,59.24
2023-02-23T17:15:09.402Z,59.11
2023-02-23T17:17:35.696Z,59.04
2023-02-23T17:20:02.028Z,58.97
2023-02-23T17:22:28.717Z,59.13
2023-02-23T17:24:55.169Z,59.05
2023-02-23T17:27:21.510Z,58.95
2023-02-23T17:29:47.931Z,59.11
2023-02-23T17:32:14.587Z,59.13
2023-02-23T17:34:41.096Z,58.80
2023-02-23T17:37:08.036Z,59.08
2023-02-23T17:39:34.557Z,58.94
2023-02-23T17:42:00.925Z,58.81
2023-02-23T17:44:27.304Z,58.94
2023-02-23T17:46:53.779Z,58.87
2023-02-23T17:49:20.126Z,59.04
2023-02-23T17:51:46.750Z,58.85
2023-02-23T17:54:13.077Z,59.03
2023-02-23T17:56:39.423Z,59.13
2023-02-23T17:59:05.829Z,58.96
2023-02-23T18:01:32.267Z,59.04
2023-02-23T18:03:58.741Z,59.09
2023-02-23T18:06:25.119Z,59.08
2023-02-23T18:08:51.523Z,58.86
2023-02-23T18:11:17.936Z,59.00
2023-02-23T18:13:46.199Z,58.93
2023-02-23T18:16:14.996Z,59.08
2023-02-23T18:18:41.501Z,58.87
2023-02-23T18:21:08.088Z,59.05
2023-02-23T18:23:34.408Z,58.93
2023-02-23T18:26:00.754Z,59.01
2023-02-23T18:28:27.030Z,58.84
2023-02-23T18:30:54.004Z,59.12
2023-02-23T18:33:20.665Z,59.08
2023-02-23T18:35:47.051Z,59.17
2023-02-23T18:38:13.563Z,59.10
2023-02-23T18:40:40.109Z,58.92
2023-02-23T18:43:06.800Z,58.80
2023-02-23T18:45:33.899Z,59.03
2023-02-23T18:48:00.541Z,58.88
2023-02-23T18:50:27.194Z,58.76
2023-02-23T18:52:53.863Z,58.79
2023-02-23T18:55:20.460Z,59.04
2023-02-23T18:57:46.803Z,59.04
2023-02-23T19:00:13.795Z,58.93
2023-02-23T19:02:40.504Z,58.99
2023-02-23T19:05:07.391Z,59.10
2023-02-23T19:07:33.906Z,59.06
2023-02-23T19:10:00.238Z,59.36
2023-02-23T19:12:26.723Z,59.54
2023-02-23T19:14:53.100Z,59.41
2023-02-23T19:17:19.399Z,59.55
2023-02-23T19:19:45.757Z,59.67
2023-02-23T19:22:12.276Z,59.36
2023-02-23T19:24:39.158Z,59.69
2023-02-23T19:27:05.770Z,59.87
2023-02-23T19:29:32.262Z,60.02
2023-02-23T19:31:59.216Z,60.25
2023-02-23T19:34:26.023Z,60.52
2023-02-23T19:36:52.362Z,60.61
2023-02-23T19:39:18.776Z,60.24
2023-02-23T19:41:45.769Z,60.50
2023-02-23T19:44:12.290Z,60.74
2023-02-23T19:46:39.130Z,60.53
2023-02-23T19:49:05.831Z,60.60
2023-02-23T19:51:32.291Z,60.67
2023-02-23T19:53:58.681Z,60.83
2023-02-23T19:56:25.020Z,60.87
2023-02-23T19:58:51.501Z,61.23
2023-02-23T20:01:18.299Z,60.92
2023-02-23T20:03:45.677Z,60.89
2023-02-23T20:06:12.035Z,61.32
2023-02-23T20:08:38.554Z,61.19
2023-02-23T20:11:04.998Z,61.43
2023-02-23T20:13:31.381Z,61.54
2023-02-23T20:15:57.672Z,61.55
2023-02-23T20:18:23.971Z,61.51
2023-02-23T20:20:50.321Z,61.69
2023-02-23T20:23:17.249Z,61.76
2023-02-23T20:25:44.263Z,61.54
2023-02-23T20:28:11.035Z,61.89
2023-02-23T20:30:37.531Z,61.69
2023-02-23T20:33:03.997Z,61.69
2023-02-23T20:35:30.399Z,61.77
2023-02-23T20:37:56.977Z,61.95
2023-02-23T20:40:23.279Z,61.76
2023-02-23T20:42:49.856Z,61.78
2023-02-23T20:45:16.738Z,62.04
2023-02-23T20:47:43.370Z,62.02
2023-02-23T20:50:09.916Z,61.85
2023-02-23T20:52:36.265Z,61.71
2023-02-23T20:55:03.051Z,61.74
2023-02-23T20:57:29.400Z,61.69
2023-02-23T20:59:55.748Z,61.76
2023-02-23T21:02:22.089Z,62.12
2023-02-23T21:04:48.574Z,61.71
2023-02-23T21:07:14.967Z,61.83
2023-02-23T21:09:41.309Z,62.28
2023-02-23T21:12:07.770Z,62.20
2023-02-23T21:14:35.489Z,62.07
2023-02-23T21:17:02.063Z,61.79
2023-02-23T21:19:28.596Z,61.70
2023-02-23T21:21:55.352Z,61.86
2023-02-23T21:24:21.721Z,61.72
2023-02-23T21:26:48.401Z,61.62
2023-02-23T21:29:14.825Z,61.59
2023-02-23T21:31:41.859Z,61.28
2023-02-23T21:34:08.560Z,61.42
2023-02-23T21:36:35.812Z,61.05
2023-02-23T21:39:02.221Z,61.15
2023-02-23T21:41:29.057Z,61.17
2023-02-23T21:43:55.607Z,60.95
2023-02-23T21:46:22.033Z,60.75
2023-02-23T21:48:48.443Z,60.92
2023-02-23T21:51:14.867Z,60.86
2023-02-23T21:53:41.260Z,60.88
2023-02-23T21:56:07.888Z,60.63
2023-02-23T21:58:34.838Z,60.53
2023-02-23T22:01:01.282Z,60.71
2023-02-23T22:03:27.643Z,60.67
2023-02-23T22:05:54.001Z,60.65
2023-02-23T22:08:20.813Z,60.42
2023-02-23T22:10:47.121Z,60.59
2023-02-23T22:13:14.524Z,60.36
2023-02-23T22:15:41.065Z,60.49
2023-02-23T22:18:07.936Z,60.77
2023-02-23T22:20:34.384Z,60.54
2023-02-23T22:23:00.851Z,60.62
2023-02-23T22:25:27.141Z,60.47
2023-02-23T22:27:53.443Z,60.38
2023-02-23T22:30:19.883Z,60.54
2023-02-23T22:32:46.578Z,60.18
2023-02-23T22:35:13.041Z,60.41
2023-02-23T22:37:39.810Z,60.03
2023-02-23T22:40:06.501Z,60.18
2023-02-23T22:42:32.795Z,59.82
2023-02-23T22:44:59.603Z,59.99
2023-02-23T22:47:26.039Z,59.88
2023-02-23T22:49:52.446Z,60.07
2023-02-23T22:52:18.871Z,59.82
2023-02-23T22:54:45.387Z,59.81
2023-02-23T22:57:11.701Z,59.94
2023-02-23T22:59:38.317Z,59.67
2023-02-23T23:02:04.673Z,59.88
2023-02-23T23:04:31.277Z,59.79
2023-02-23T23:06:57.918Z,59.37
2023-02-23T23:09:24.615Z,59.46
2023-02-23T23:11:51.379Z,59.36
2023-02-23T23:14:17.795Z,59.43
2023-02-23T23:16:44.346Z,59.56
2023-02-23T23:19:11.764Z,59.26
2023-02-23T23:21:39.030Z,59.43
2023-02-23T23:24:05.327Z,59.40
2023-02-23T23:26:31.782Z,59.21
2023-02-23T23:28:58.123Z,59.49
2023-02-23T23:31:25.063Z,59.36
2023-02-23T23:33:51.532Z,59.28
2023-02-23T23:36:18.042Z,59.38
2023-02-23T23:38:44.317Z,59.44
2023-02-23T23:41:10.613Z,59.35
2023-02-23T23:43:37.046Z,59.08
2023-02-23T23:46:03.385Z,59.02
2023-02-23T23:48:29.715Z,59.17
2023-02-23T23:50:56.190Z,58.96
2023-02-23T23:53:22.702Z,59.20
2023-02-23T23:55:49.053Z,59.12
2023-02-23T23:58:15.399Z,59.27
